Time;durP1;ratioP1;P1;durP2;ratioP2;P2;SDS_P1;SDS_P2;PMS_P1;PMS_P2;Temp;Humidity;BMP_temperature;BMP_pressure;BME280_temperature;BME280_humidity;BME280_pressure;Samples;Min_cycle;Max_cycle;Signal;HPM_P1;HPM_P2
2021/12/29 00:00:32;;;;;;;15.68;8.63;;;;;;;;;;2107596;28;20413;-46
2021/12/29 00:01:33;;;;;;;15.70;8.40;;;;;;;;;;2106890;28;20101;-44
2021/12/29 00:02:34;;;;;;;14.18;7.43;;;;;;;;;;2106754;28;20048;-44
2021/12/29 00:03:35;;;;;;;16.45;8.98;;;;;;;;;;2103835;28;20051;-45
2021/12/29 00:04:36;;;;;;;15.75;8.55;;;;;;;;;;2098398;28;20123;-45
2021/12/29 00:05:37;;;;;;;17.33;9.27;;;;;;;;;;2098589;28;20478;-46
2021/12/29 00:06:38;;;;;;;15.63;8.40;;;;;;;;;;2106323;28;20523;-44
2021/12/29 00:07:40;;;;;;;19.77;8.95;;;;;;;;;;2115119;28;20482;-45
2021/12/29 00:08:42;;;;;;;17.38;8.80;;;;;;;;;;2114099;28;20054;-45
2021/12/29 00:09:42;;;;;;;;;;;;;;;;;;2108598;28;20044;-45
2021/12/29 00:10:44;;;;;;;15.75;7.85;;;;;;;;;;2106784;28;20296;-44
2021/12/29 00:11:44;;;;;;;18.05;8.75;;;;;;;;;;2106324;28;20078;-44
2021/12/29 00:12:49;;;;;;;16.60;8.18;;;;;;;;;;2105021;28;20059;-45
2021/12/29 00:13:50;;;;;;;14.93;8.77;;;;;;;;;;2106561;28;20465;-46
2021/12/29 00:14:51;;;;;;;16.17;8.23;;;;;;;;;;2105052;28;20139;-45
2021/12/29 00:15:57;;;;;;;13.80;8.67;;;;;;;;;;2101216;28;20045;-44
2021/12/29 00:16:58;;;;;;;18.33;9.43;;;;;;;;;;2098363;28;20135;-44
2021/12/29 00:18:01;;;;;;;17.70;9.02;;;;;;;;;;2100297;28;20187;-44
2021/12/29 00:19:02;;;;;;;18.95;9.40;;;;;;;;;;2113181;28;20124;-45
2021/12/29 00:20:04;;;;;;;16.73;8.77;;;;;;;;;;2115148;28;20048;-45
2021/12/29 00:21:06;;;;;;;15.80;8.73;;;;;;;;;;2108947;28;20120;-44
2021/12/29 00:22:07;;;;;;;18.00;9.32;;;;;;;;;;2105903;28;20071;-46
2021/12/29 00:23:09;;;;;;;16.30;8.97;;;;;;;;;;2106805;28;20489;-44
2021/12/29 00:24:14;;;;;;;17.70;8.45;;;;;;;;;;2104887;28;20076;-44
2021/12/29 00:25:15;;;;;;;14.07;8.35;;;;;;;;;;2115023;28;20500;-45
2021/12/29 00:26:17;;;;;;;16.58;8.23;;;;;;;;;;2115148;28;20050;-43
2021/12/29 00:27:18;;;;;;;;;;;;;;;;;;2106726;28;20131;-45
2021/12/29 00:28:19;;;;;;;17.15;6.97;;;;;;;;;;2106495;28;20292;-45
2021/12/29 00:29:20;;;;;;;15.20;7.18;;;;;;;;;;2106577;28;20489;-44
2021/12/29 00:30:22;;;;;;;17.20;8.43;;;;;;;;;;2106379;28;20043;-45
2021/12/29 00:31:23;;;;;;;16.02;8.80;;;;;;;;;;2098211;28;20064;-45
2021/12/29 00:32:24;;;;;;;17.63;8.90;;;;;;;;;;2102931;28;20492;-44
2021/12/29 00:33:25;;;;;;;15.52;8.57;;;;;;;;;;2101915;28;20055;-44
2021/12/29 00:34:26;;;;;;;19.58;8.82;;;;;;;;;;2098368;28;20044;-44
2021/12/29 00:35:29;;;;;;;16.50;8.95;;;;;;;;;;2100124;28;20443;-44
2021/12/29 00:36:30;;;;;;;14.82;8.65;;;;;;;;;;2105169;28;20059;-44
2021/12/29 00:37:31;;;;;;;16.43;8.53;;;;;;;;;;2106625;28;20052;-45
2021/12/29 00:38:32;;;;;;;19.30;9.02;;;;;;;;;;2103704;28;20193;-44
2021/12/29 00:39:34;;;;;;;14.17;8.00;;;;;;;;;;2105927;28;20105;-45
2021/12/29 00:40:35;;;;;;;16.75;9.60;;;;;;;;;;2106500;28;20552;-43
2021/12/29 00:41:36;;;;;;;20.20;9.07;;;;;;;;;;2106859;28;20064;-44
2021/12/29 00:42:38;;;;;;;19.70;9.02;;;;;;;;;;2100512;28;20466;-44
2021/12/29 00:43:39;;;;;;;17.50;9.13;;;;;;;;;;2098335;28;20048;-44
2021/12/29 00:44:40;;;;;;;18.40;8.65;;;;;;;;;;2104924;28;20122;-43
2021/12/29 00:45:43;;;;;;;15.55;8.18;;;;;;;;;;2098897;28;20076;-44
2021/12/29 00:46:45;;;;;;;16.95;9.02;;;;;;;;;;2097980;28;20052;-47
2021/12/29 00:47:46;;;;;;;16.57;8.27;;;;;;;;;;2102882;28;20040;-44
2021/12/29 00:48:48;;;;;;;14.88;8.73;;;;;;;;;;2098108;28;20056;-44
2021/12/29 00:49:49;;;;;;;16.42;8.45;;;;;;;;;;2098131;28;20131;-47
2021/12/29 00:50:50;;;;;;;17.08;9.13;;;;;;;;;;2102666;28;20477;-45
2021/12/29 00:51:51;;;;;;;19.50;9.93;;;;;;;;;;2098069;28;20136;-44
2021/12/29 00:52:52;;;;;;;13.77;8.25;;;;;;;;;;2098081;28;20065;-44
2021/12/29 00:53:53;;;;;;;15.70;9.27;;;;;;;;;;2104338;28;20047;-44
2021/12/29 00:54:55;;;;;;;17.58;8.82;;;;;;;;;;2106424;28;20509;-45
2021/12/29 00:55:56;;;;;;;16.05;8.85;;;;;;;;;;2105984;28;20126;-46
2021/12/29 00:56:58;;;;;;;17.05;8.88;;;;;;;;;;2100908;28;20094;-45
2021/12/29 00:57:59;;;;;;;16.90;8.40;;;;;;;;;;2098207;28;20128;-45
2021/12/29 00:59:00;;;;;;;16.17;8.57;;;;;;;;;;2101413;28;20501;-45
2021/12/29 01:00:03;;;;;;;16.95;9.07;;;;;;;;;;2102413;28;20310;-45
2021/12/29 01:01:04;;;;;;;18.60;9.10;;;;;;;;;;2097301;28;20131;-44
2021/12/29 01:02:05;;;;;;;19.25;9.18;;;;;;;;;;2101919;28;20041;-46
2021/12/29 01:03:07;;;;;;;18.60;9.77;;;;;;;;;;2106220;28;20138;-45
2021/12/29 01:04:08;;;;;;;14.95;7.65;;;;;;;;;;2106279;28;20131;-45
2021/12/29 01:05:10;;;;;;;18.92;9.88;;;;;;;;;;2103979;28;20404;-45
2021/12/29 01:06:11;;;;;;;;;;;;;;;;;;2113465;28;20074;-45
2021/12/29 01:07:12;;;;;;;19.33;7.55;;;;;;;;;;2114818;28;19927;-46
2021/12/29 01:08:13;;;;;;;22.10;8.32;;;;;;;;;;2105618;28;20048;-45
2021/12/29 01:09:15;;;;;;;16.60;7.63;;;;;;;;;;2106312;28;20101;-45
2021/12/29 01:10:17;;;;;;;18.85;9.00;;;;;;;;;;2106405;28;20040;-45
2021/12/29 01:11:18;;;;;;;20.27;9.85;;;;;;;;;;2107548;28;20047;-45
2021/12/29 01:12:19;;;;;;;21.38;8.73;;;;;;;;;;2097935;28;20048;-45
2021/12/29 01:13:29;;;;;;;15.40;8.65;;;;;;;;;;2098152;28;20048;-45
2021/12/29 01:14:31;;;;;;;18.80;8.68;;;;;;;;;;2101518;28;20054;-45
2021/12/29 01:15:36;;;;;;;20.02;8.93;;;;;;;;;;2098130;28;20139;-44
2021/12/29 01:16:37;;;;;;;16.23;8.80;;;;;;;;;;2098664;28;20049;-45
2021/12/29 01:17:38;;;;;;;15.95;8.32;;;;;;;;;;2108683;28;20572;-45
2021/12/29 01:18:39;;;;;;;16.50;7.82;;;;;;;;;;2114704;28;20150;-45
2021/12/29 01:19:40;;;;;;;18.73;7.47;;;;;;;;;;2110153;28;20074;-44
2021/12/29 01:20:41;;;;;;;19.38;8.98;;;;;;;;;;2105965;28;20121;-44
2021/12/29 01:21:43;;;;;;;17.50;8.50;;;;;;;;;;2106362;28;20481;-45
2021/12/29 01:22:44;;;;;;;;;;;;;;;;;;2104293;28;20044;-45
2021/12/29 01:23:45;;;;;;;17.05;6.95;;;;;;;;;;2105379;28;19920;-45
2021/12/29 01:24:46;;;;;;;13.10;6.60;;;;;;;;;;2106424;28;20056;-44
2021/12/29 01:25:48;;;;;;;13.45;7.28;;;;;;;;;;2104082;28;20524;-45
2021/12/29 01:26:49;;;;;;;14.35;7.55;;;;;;;;;;2113409;28;20043;-45
2021/12/29 01:27:50;;;;;;;17.25;7.50;;;;;;;;;;2114676;28;20055;-45
2021/12/29 01:28:51;;;;;;;17.05;8.18;;;;;;;;;;2107393;28;20079;-45
2021/12/29 01:29:52;;;;;;;14.13;6.80;;;;;;;;;;2105681;28;20055;-45
2021/12/29 01:30:53;;;;;;;14.90;7.47;;;;;;;;;;2106310;28;20127;-44
2021/12/29 01:31:54;;;;;;;13.93;7.82;;;;;;;;;;2103465;28;20408;-44
2021/12/29 01:32:55;;;;;;;14.38;8.05;;;;;;;;;;2098542;28;20127;-45
2021/12/29 01:33:56;;;;;;;15.88;8.05;;;;;;;;;;2097782;28;20101;-45
2021/12/29 01:34:57;;;;;;;14.50;7.30;;;;;;;;;;2105579;28;20181;-45
2021/12/29 01:35:58;;;;;;;14.40;7.70;;;;;;;;;;2097952;28;20519;-45
2021/12/29 01:37:00;;;;;;;14.85;7.70;;;;;;;;;;2097747;28;20554;-45
2021/12/29 01:38:01;;;;;;;13.10;7.13;;;;;;;;;;2104164;28;20576;-44
2021/12/29 01:39:03;;;;;;;17.92;8.13;;;;;;;;;;2106121;28;20181;-45
2021/12/29 01:40:04;;;;;;;;;;;;;;;;;;2106071;28;20040;-45
2021/12/29 01:41:05;;;;;;;12.38;5.88;;;;;;;;;;2105135;28;19924;-45
2021/12/29 01:42:07;;;;;;;13.90;5.95;;;;;;;;;;2106202;28;20135;-44
2021/12/29 01:43:08;;;;;;;13.30;6.35;;;;;;;;;;2105703;28;20058;-44
2021/12/29 01:44:10;;;;;;;17.38;7.40;;;;;;;;;;2101737;28;20489;-46
2021/12/29 01:45:12;;;;;;;14.40;8.00;;;;;;;;;;2097852;28;20046;-45
2021/12/29 01:46:13;;;;;;;15.75;7.50;;;;;;;;;;2098597;28;20040;-45
2021/12/29 01:47:23;;;;;;;15.75;7.05;;;;;;;;;;2101457;28;20045;-44
2021/12/29 01:48:24;;;;;;;15.80;6.97;;;;;;;;;;2097615;28;20052;-45
2021/12/29 01:49:25;;;;;;;14.48;7.20;;;;;;;;;;2100484;28;20489;-45
2021/12/29 01:50:26;;;;;;;15.85;7.78;;;;;;;;;;2104557;28;20050;-44
2021/12/29 01:51:29;;;;;;;15.23;7.03;;;;;;;;;;2106029;28;20421;-45
2021/12/29 01:52:36;;;;;;;13.82;6.30;;;;;;;;;;2106258;28;20051;-45
2021/12/29 01:53:46;;;;;;;16.35;7.22;;;;;;;;;;2114664;28;20051;-45
2021/12/29 01:54:47;;;;;;;14.77;7.35;;;;;;;;;;2109047;28;20044;-45
2021/12/29 01:55:48;;;;;;;14.70;8.07;;;;;;;;;;2110572;28;20071;-44
2021/12/29 01:56:51;;;;;;;14.70;7.93;;;;;;;;;;2114478;28;20047;-45
2021/12/29 01:57:52;;;;;;;14.75;8.13;;;;;;;;;;2109022;28;20052;-45
2021/12/29 01:58:53;;;;;;;14.23;8.43;;;;;;;;;;2105714;28;20510;-45
2021/12/29 01:59:54;;;;;;;15.13;7.80;;;;;;;;;;2106150;28;20181;-44
2021/12/29 02:00:58;;;;;;;13.43;7.15;;;;;;;;;;2103361;28;20533;-45
2021/12/29 02:01:59;;;;;;;19.33;8.13;;;;;;;;;;2113982;28;20073;-44
2021/12/29 02:03:01;;;;;;;16.83;8.85;;;;;;;;;;2114560;28;20155;-45
2021/12/29 02:04:02;;;;;;;18.50;8.95;;;;;;;;;;2105586;28;20481;-45
2021/12/29 02:05:03;;;;;;;14.98;8.27;;;;;;;;;;2105914;28;20046;-45
2021/12/29 02:06:04;;;;;;;20.98;9.18;;;;;;;;;;2105869;28;20442;-46
2021/12/29 02:07:05;;;;;;;17.37;9.20;;;;;;;;;;2104911;28;20098;-45
2021/12/29 02:08:07;;;;;;;19.85;9.13;;;;;;;;;;2114426;28;20122;-44
2021/12/29 02:09:08;;;;;;;17.95;7.45;;;;;;;;;;2114349;28;20626;-45
2021/12/29 02:10:10;;;;;;;14.50;8.45;;;;;;;;;;2103956;28;20048;-45
2021/12/29 02:11:12;;;;;;;15.85;8.80;;;;;;;;;;2105932;28;20122;-45
2021/12/29 02:12:13;;;;;;;17.25;8.65;;;;;;;;;;2105506;28;20050;-45
2021/12/29 02:13:14;;;;;;;16.83;8.40;;;;;;;;;;2104455;28;20071;-44
2021/12/29 02:14:15;;;;;;;16.52;8.38;;;;;;;;;;2097725;28;20127;-44
2021/12/29 02:15:16;;;;;;;16.63;9.27;;;;;;;;;;2098262;28;20394;-44
2021/12/29 02:16:17;;;;;;;19.52;8.77;;;;;;;;;;2103792;28;20552;-44
2021/12/29 02:17:18;;;;;;;18.33;8.10;;;;;;;;;;2105748;28;20044;-44
2021/12/29 02:18:20;;;;;;;18.20;8.35;;;;;;;;;;2104767;28;20044;-44
2021/12/29 02:19:24;;;;;;;18.90;9.55;;;;;;;;;;2104603;28;20048;-45
2021/12/29 02:20:27;;;;;;;21.50;8.98;;;;;;;;;;2097500;28;20163;-45
2021/12/29 02:21:29;;;;;;;16.90;9.30;;;;;;;;;;2098754;28;20131;-45
2021/12/29 02:22:37;;;;;;;16.13;9.32;;;;;;;;;;2104508;28;20139;-44
2021/12/29 02:23:54;;;;;;;18.90;9.57;;;;;;;;;;2105877;28;20523;-45
2021/12/29 02:25:08;;;;;;;15.27;7.47;;;;;;;;;;2103721;28;20576;-44
2021/12/29 02:26:09;;;;;;;16.52;8.43;;;;;;;;;;2105830;28;20444;-45
2021/12/29 02:27:11;;;;;;;16.02;8.57;;;;;;;;;;2104962;28;20489;-45
2021/12/29 02:28:13;;;;;;;16.05;7.75;;;;;;;;;;2107440;28;20615;-45
2021/12/29 02:29:16;;;;;;;16.98;8.43;;;;;;;;;;2105788;28;20408;-46
2021/12/29 02:30:19;;;;;;;20.52;9.60;;;;;;;;;;2104349;28;20094;-44
2021/12/29 02:31:20;;;;;;;;;;;;;;;;;;2105561;28;20048;-45
2021/12/29 02:32:22;;;;;;;15.85;6.38;;;;;;;;;;2104468;28;20269;-45
2021/12/29 02:33:24;;;;;;;16.38;8.40;;;;;;;;;;2103414;28;20043;-45
2021/12/29 02:34:25;;;;;;;15.05;8.07;;;;;;;;;;2105783;28;20048;-46
2021/12/29 02:35:27;;;;;;;21.00;9.10;;;;;;;;;;2105868;28;20070;-44
2021/12/29 02:36:27;;;;;;;;;;;;;;;;;;2103851;28;20048;-45
2021/12/29 02:37:28;;;;;;;15.85;7.03;;;;;;;;;;2105730;28;19931;-45
2021/12/29 02:38:30;;;;;;;18.60;7.95;;;;;;;;;;2105746;28;20140;-45
2021/12/29 02:39:33;;;;;;;15.57;8.82;;;;;;;;;;2105990;28;20047;-44
2021/12/29 02:40:34;;;;;;;17.77;8.95;;;;;;;;;;2097531;28;20131;-46
2021/12/29 02:41:35;;;;;;;18.70;8.93;;;;;;;;;;2097053;28;20132;-45
2021/12/29 02:42:40;;;;;;;17.85;8.43;;;;;;;;;;2106478;28;20064;-45
2021/12/29 02:43:41;;;;;;;17.40;8.23;;;;;;;;;;2114318;28;20047;-45
2021/12/29 02:44:42;;;;;;;17.45;8.10;;;;;;;;;;2112307;28;20071;-45
2021/12/29 02:45:49;;;;;;;16.67;8.63;;;;;;;;;;2104378;28;20082;-45
2021/12/29 02:46:50;;;;;;;14.00;8.07;;;;;;;;;;2097342;28;20052;-45
2021/12/29 02:47:52;;;;;;;17.55;9.27;;;;;;;;;;2098797;28;20715;-44
2021/12/29 02:48:56;;;;;;;18.10;9.23;;;;;;;;;;2104590;28;20147;-44
2021/12/29 02:49:58;;;;;;;18.90;9.55;;;;;;;;;;2105865;28;20048;-44
2021/12/29 02:51:00;;;;;;;18.92;10.23;;;;;;;;;;2103597;28;20147;-44
2021/12/29 02:52:01;;;;;;;22.00;9.38;;;;;;;;;;2112508;28;20122;-45
2021/12/29 02:53:02;;;;;;;18.00;8.80;;;;;;;;;;2114180;28;20180;-45
2021/12/29 02:54:03;;;;;;;19.05;10.02;;;;;;;;;;2105762;28;20076;-44
2021/12/29 02:55:04;;;;;;;15.15;7.82;;;;;;;;;;2105570;28;20054;-45
2021/12/29 02:56:05;;;;;;;18.08;7.45;;;;;;;;;;2105777;28;20119;-44
2021/12/29 02:57:07;;;;;;;18.00;9.60;;;;;;;;;;2103438;28;20044;-45
2021/12/29 02:58:08;;;;;;;17.90;9.02;;;;;;;;;;2105546;28;20044;-44
2021/12/29 02:59:09;;;;;;;20.07;9.77;;;;;;;;;;2105675;28;20040;-45
2021/12/29 03:00:11;;;;;;;18.45;9.38;;;;;;;;;;2103245;28;20060;-44
2021/12/29 03:01:14;;;;;;;17.55;9.45;;;;;;;;;;2105784;28;20048;-45
2021/12/29 03:02:15;;;;;;;15.20;8.43;;;;;;;;;;2105861;28;20048;-48
2021/12/29 03:03:17;;;;;;;22.30;9.68;;;;;;;;;;2103199;28;20478;-49
2021/12/29 03:04:18;;;;;;;19.25;8.02;;;;;;;;;;2105664;28;20177;-50
2021/12/29 03:05:23;;;;;;;16.90;9.38;;;;;;;;;;2105411;28;20132;-47
2021/12/29 03:06:25;;;;;;;18.40;8.23;;;;;;;;;;2106980;28;20048;-48
2021/12/29 03:07:26;;;;;;;15.48;8.68;;;;;;;;;;2114232;28;20139;-49
2021/12/29 03:08:27;;;;;;;16.70;8.60;;;;;;;;;;2111679;28;20503;-49
2021/12/29 03:09:28;;;;;;;16.73;9.15;;;;;;;;;;2104286;28;20306;-48
2021/12/29 03:10:29;;;;;;;22.77;8.90;;;;;;;;;;2105828;28;20056;-48
2021/12/29 03:11:30;;;;;;;14.68;8.70;;;;;;;;;;2102742;28;20298;-48
2021/12/29 03:12:31;;;;;;;20.88;9.50;;;;;;;;;;2105986;28;20047;-48
2021/12/29 03:13:33;;;;;;;18.55;9.85;;;;;;;;;;2105350;28;20048;-48
2021/12/29 03:14:34;;;;;;;19.83;9.80;;;;;;;;;;2103590;28;20553;-48
2021/12/29 03:15:35;;;;;;;15.90;8.45;;;;;;;;;;2110997;28;20088;-48
2021/12/29 03:16:37;;;;;;;17.27;9.27;;;;;;;;;;2113978;28;20556;-48
2021/12/29 03:17:38;;;;;;;15.80;8.10;;;;;;;;;;2109105;28;20048;-48
2021/12/29 03:18:39;;;;;;;17.00;9.67;;;;;;;;;;2104091;28;20094;-48
2021/12/29 03:19:40;;;;;;;15.73;8.52;;;;;;;;;;2105686;28;20050;-47
2021/12/29 03:20:41;;;;;;;16.52;8.75;;;;;;;;;;2104633;28;20407;-51
2021/12/29 03:21:44;;;;;;;17.80;9.10;;;;;;;;;;2104229;28;20044;-48
2021/12/29 03:22:45;;;;;;;18.55;8.25;;;;;;;;;;2105546;28;20147;-47
2021/12/29 03:23:48;;;;;;;16.43;9.07;;;;;;;;;;2106328;28;20051;-50
2021/12/29 03:24:49;;;;;;;16.25;8.35;;;;;;;;;;2106788;28;20048;-50
2021/12/29 03:25:51;;;;;;;17.07;8.93;;;;;;;;;;2107203;28;20509;-49
2021/12/29 03:26:52;;;;;;;;;;;;;;;;;;2105965;28;20101;-47
2021/12/29 03:27:58;;;;;;;19.55;6.72;;;;;;;;;;2115308;28;20319;-49
2021/12/29 03:28:59;;;;;;;15.10;7.05;;;;;;;;;;2115470;28;20095;-48
2021/12/29 03:30:00;;;;;;;16.40;8.05;;;;;;;;;;2107160;28;20046;-48
2021/12/29 03:31:01;;;;;;;16.52;8.60;;;;;;;;;;2098736;28;20075;-51
2021/12/29 03:32:07;;;;;;;15.15;7.75;;;;;;;;;;2100348;28;20044;-48
2021/12/29 03:33:09;;;;;;;16.80;8.00;;;;;;;;;;2106085;28;20237;-49
2021/12/29 03:34:10;;;;;;;16.02;7.32;;;;;;;;;;2098656;28;20360;-48
2021/12/29 03:35:11;;;;;;;18.60;8.27;;;;;;;;;;2099306;28;20044;-48
2021/12/29 03:36:13;;;;;;;17.92;8.82;;;;;;;;;;2105642;28;20051;-48
2021/12/29 03:37:14;;;;;;;19.13;8.95;;;;;;;;;;2098748;28;20178;-48
2021/12/29 03:38:17;;;;;;;16.92;9.30;;;;;;;;;;2099286;28;20135;-50
2021/12/29 03:39:18;;;;;;;17.60;8.05;;;;;;;;;;2105136;28;20044;-48
2021/12/29 03:40:19;;;;;;;16.27;8.45;;;;;;;;;;2098581;28;20509;-48
2021/12/29 03:41:20;;;;;;;14.63;8.13;;;;;;;;;;2101254;28;20044;-48
2021/12/29 03:42:21;;;;;;;17.40;8.57;;;;;;;;;;2100424;28;20443;-48
2021/12/29 03:43:23;;;;;;;15.00;7.97;;;;;;;;;;2098775;28;20098;-47
2021/12/29 03:44:24;;;;;;;15.45;8.35;;;;;;;;;;2101973;28;20201;-50
2021/12/29 03:45:25;;;;;;;16.87;9.10;;;;;;;;;;2105495;28;20485;-49
2021/12/29 03:46:27;;;;;;;14.90;7.95;;;;;;;;;;2106922;28;20052;-49
2021/12/29 03:47:28;;;;;;;16.48;8.80;;;;;;;;;;2105229;28;23511;-48
2021/12/29 03:48:30;;;;;;;14.88;7.50;;;;;;;;;;2106250;28;20512;-47
2021/12/29 03:49:31;;;;;;;18.48;9.15;;;;;;;;;;2106848;28;20127;-47
2021/12/29 03:50:32;;;;;;;17.15;7.95;;;;;;;;;;2104435;28;20068;-48
2021/12/29 03:51:33;;;;;;;16.77;8.50;;;;;;;;;;2106818;28;20381;-48
2021/12/29 03:52:34;;;;;;;17.00;8.73;;;;;;;;;;2106936;28;20151;-48
2021/12/29 03:53:36;;;;;;;17.27;7.97;;;;;;;;;;2107880;28;20039;-49
2021/12/29 03:54:37;;;;;;;16.85;9.10;;;;;;;;;;2098618;28;20048;-48
2021/12/29 03:55:39;;;;;;;16.58;8.75;;;;;;;;;;2098683;28;20076;-47
2021/12/29 03:56:40;;;;;;;14.70;7.30;;;;;;;;;;2105573;28;20173;-47
2021/12/29 03:57:41;;;;;;;14.95;8.27;;;;;;;;;;2115432;28;20130;-50
2021/12/29 03:58:44;;;;;;;16.38;8.85;;;;;;;;;;2115273;28;20040;-48
2021/12/29 03:59:45;;;;;;;19.38;8.57;;;;;;;;;;2108224;28;20056;-48
2021/12/29 04:00:46;;;;;;;11.13;6.53;;;;;;;;;;2106879;28;20402;-47
2021/12/29 04:01:50;;;;;;;16.33;8.07;;;;;;;;;;2106307;28;20091;-48
2021/12/29 04:02:51;;;;;;;14.70;7.90;;;;;;;;;;2106093;28;20517;-48
2021/12/29 04:03:52;;;;;;;18.05;8.38;;;;;;;;;;2106909;28;20056;-50
2021/12/29 04:04:53;;;;;;;17.93;8.97;;;;;;;;;;2105460;28;20051;-47
2021/12/29 04:05:54;;;;;;;12.95;7.72;;;;;;;;;;2105569;28;20037;-47
2021/12/29 04:06:55;;;;;;;16.07;8.77;;;;;;;;;;2098489;28;20378;-48
2021/12/29 04:07:57;;;;;;;13.40;8.38;;;;;;;;;;2099585;28;20860;-47
2021/12/29 04:08:58;;;;;;;16.90;8.90;;;;;;;;;;2104811;28;20131;-50
2021/12/29 04:09:59;;;;;;;15.50;8.35;;;;;;;;;;2105393;28;20562;-47
2021/12/29 04:11:00;;;;;;;16.27;8.57;;;;;;;;;;2106071;28;20097;-47
2021/12/29 04:12:01;;;;;;;17.35;8.30;;;;;;;;;;2108029;28;20406;-47
2021/12/29 04:13:02;;;;;;;15.55;8.40;;;;;;;;;;2106742;28;20077;-48
2021/12/29 04:14:03;;;;;;;13.45;8.02;;;;;;;;;;2105686;28;20056;-48
2021/12/29 04:15:05;;;;;;;18.40;8.87;;;;;;;;;;2105314;28;20044;-48
2021/12/29 04:16:10;;;;;;;14.75;8.30;;;;;;;;;;2106618;28;20200;-51
2021/12/29 04:17:12;;;;;;;14.65;7.95;;;;;;;;;;2104806;28;20036;-48
2021/12/29 04:18:26;;;;;;;;;;;;;;;;;;2106107;28;20123;-47
2021/12/29 04:19:39;;;;;;;11.18;6.05;;;;;;;;;;2106757;28;20487;-48
2021/12/29 04:20:57;;;;;;;19.67;8.23;;;;;;;;;;2108529;28;20047;-49
2021/12/29 04:21:58;;;;;;;15.90;6.75;;;;;;;;;;2106684;28;20490;-48
2021/12/29 04:23:00;;;;;;;12.70;6.93;;;;;;;;;;2105656;28;20135;-47
2021/12/29 04:24:01;;;;;;;14.98;7.47;;;;;;;;;;2105360;28;20584;-47
2021/12/29 04:25:03;;;;;;;14.67;8.20;;;;;;;;;;2106646;28;20105;-48
2021/12/29 04:26:05;;;;;;;16.23;8.40;;;;;;;;;;2104821;28;20036;-48
2021/12/29 04:27:06;;;;;;;;;;;;;;;;;;2106911;28;20131;-47
2021/12/29 04:28:10;;;;;;;14.48;6.75;;;;;;;;;;2106618;28;20018;-47
2021/12/29 04:29:13;;;;;;;16.33;6.90;;;;;;;;;;2104322;28;20040;-48
2021/12/29 04:30:14;;;;;;;14.30;7.00;;;;;;;;;;2106606;28;20043;-47
2021/12/29 04:31:15;;;;;;;17.10;8.10;;;;;;;;;;2106620;28;20500;-49
2021/12/29 04:32:16;;;;;;;16.25;8.35;;;;;;;;;;2102194;28;20561;-47
2021/12/29 04:33:18;;;;;;;14.27;7.97;;;;;;;;;;2098478;28;20048;-47
2021/12/29 04:34:19;;;;;;;13.70;8.40;;;;;;;;;;2097940;28;20055;-48
2021/12/29 04:35:20;;;;;;;12.93;7.53;;;;;;;;;;2106133;28;20079;-47
2021/12/29 04:36:24;;;;;;;17.63;9.02;;;;;;;;;;2114116;28;20126;-47
2021/12/29 04:37:24;;;;;;;16.65;8.57;;;;;;;;;;2113352;28;20050;-51
2021/12/29 04:38:26;;;;;;;11.43;7.30;;;;;;;;;;2101951;28;20105;-47
2021/12/29 04:39:27;;;;;;;11.45;6.63;;;;;;;;;;2098330;28;20130;-47
2021/12/29 04:40:28;;;;;;;13.73;7.95;;;;;;;;;;2099143;28;20452;-48
2021/12/29 04:41:30;;;;;;;15.60;7.65;;;;;;;;;;2105085;28;20147;-48
2021/12/29 04:42:30;;;;;;;13.63;7.57;;;;;;;;;;2098322;28;20135;-47
2021/12/29 04:43:32;;;;;;;15.48;7.55;;;;;;;;;;2098945;28;20067;-47
2021/12/29 04:44:32;;;;;;;12.43;7.30;;;;;;;;;;2105017;28;20127;-47
2021/12/29 04:45:34;;;;;;;17.23;8.75;;;;;;;;;;2098177;28;20044;-47
2021/12/29 04:46:38;;;;;;;12.55;7.50;;;;;;;;;;2100475;28;20489;-48
2021/12/29 04:47:42;;;;;;;15.85;8.48;;;;;;;;;;2112696;28;20055;-48
2021/12/29 04:48:49;;;;;;;16.48;8.60;;;;;;;;;;2115040;28;20043;-47
2021/12/29 04:49:51;;;;;;;16.65;7.95;;;;;;;;;;2110064;28;20470;-47
2021/12/29 04:51:03;;;;;;;15.75;8.65;;;;;;;;;;2105448;28;20131;-46
2021/12/29 04:52:04;;;;;;;14.23;6.93;;;;;;;;;;2106649;28;20118;-48
2021/12/29 04:53:06;;;;;;;15.45;8.48;;;;;;;;;;2106271;28;20036;-47
2021/12/29 04:54:07;;;;;;;;;;;;;;;;;;2098857;28;20044;-45
2021/12/29 04:55:09;;;;;;;14.95;6.85;;;;;;;;;;2098146;28;20368;-45
2021/12/29 04:56:10;;;;;;;16.88;7.90;;;;;;;;;;2107998;28;20052;-45
2021/12/29 04:57:11;;;;;;;16.83;9.02;;;;;;;;;;2114861;28;20067;-44
2021/12/29 04:58:12;;;;;;;17.10;9.15;;;;;;;;;;2113258;28;20114;-45
2021/12/29 04:59:15;;;;;;;15.05;8.65;;;;;;;;;;2100976;28;20105;-44
2021/12/29 05:00:20;;;;;;;16.25;8.65;;;;;;;;;;2098164;28;20093;-44
2021/12/29 05:01:21;;;;;;;17.40;9.32;;;;;;;;;;2103362;28;20222;-44
2021/12/29 05:02:25;;;;;;;19.05;10.20;;;;;;;;;;2099487;28;20044;-44
2021/12/29 05:03:26;;;;;;;19.42;10.00;;;;;;;;;;2098059;28;20057;-44
2021/12/29 05:04:32;;;;;;;18.23;9.60;;;;;;;;;;2100732;28;20096;-45
2021/12/29 05:05:53;;;;;;;14.52;7.93;;;;;;;;;;2099265;28;20494;-44
2021/12/29 05:08:25;;;;;;;20.80;9.45;;;;;;;;;;2099999;28;20127;-44
2021/12/29 05:09:26;;;;;;;19.13;8.95;;;;;;;;;;2097949;28;20581;-44
2021/12/29 05:10:28;;;;;;;19.47;9.33;;;;;;;;;;2103499;28;20052;-44
2021/12/29 05:11:29;;;;;;;18.70;10.75;;;;;;;;;;2106221;28;20557;-44
2021/12/29 05:12:30;;;;;;;17.67;9.30;;;;;;;;;;2106394;28;20056;-44
2021/12/29 05:13:32;;;;;;;21.50;9.27;;;;;;;;;;2105686;28;20063;-45
2021/12/29 05:14:33;;;;;;;18.83;8.82;;;;;;;;;;2114896;28;20043;-43
2021/12/29 05:15:35;;;;;;;18.50;9.03;;;;;;;;;;2114852;28;20428;-43
2021/12/29 05:16:35;;;;;;;17.02;9.38;;;;;;;;;;2103053;28;20045;-45
2021/12/29 05:17:37;;;;;;;16.47;9.40;;;;;;;;;;2106357;28;20050;-45
2021/12/29 05:18:38;;;;;;;14.45;8.65;;;;;;;;;;2105953;28;20072;-44
2021/12/29 05:19:39;;;;;;;27.90;9.77;;;;;;;;;;2105263;28;20575;-44
2021/12/29 05:20:40;;;;;;;17.07;9.43;;;;;;;;;;2097948;28;20054;-45
2021/12/29 05:21:41;;;;;;;18.67;8.90;;;;;;;;;;2098586;28;20477;-44
2021/12/29 05:22:42;;;;;;;20.00;9.63;;;;;;;;;;2104673;28;20126;-45
2021/12/29 05:23:43;;;;;;;15.95;9.02;;;;;;;;;;2106352;28;20127;-44
2021/12/29 05:24:44;;;;;;;14.40;8.05;;;;;;;;;;2105018;28;20509;-44
2021/12/29 05:25:45;;;;;;;20.38;9.38;;;;;;;;;;2110108;28;20043;-45
2021/12/29 05:26:47;;;;;;;17.85;10.18;;;;;;;;;;2114726;28;20048;-44
2021/12/29 05:27:48;;;;;;;20.25;10.80;;;;;;;;;;2110129;28;20123;-44
2021/12/29 05:28:49;;;;;;;17.95;9.00;;;;;;;;;;2108337;28;20044;-44
2021/12/29 05:29:51;;;;;;;17.55;9.82;;;;;;;;;;2106321;28;20059;-44
2021/12/29 05:30:53;;;;;;;15.50;9.03;;;;;;;;;;2105248;28;20036;-45
2021/12/29 05:31:54;;;;;;;15.55;8.80;;;;;;;;;;2103399;28;20136;-44
2021/12/29 05:32:55;;;;;;;16.58;7.85;;;;;;;;;;2106301;28;20455;-45
2021/12/29 05:34:00;;;;;;;16.17;8.90;;;;;;;;;;2104743;28;20132;-44
2021/12/29 05:35:01;;;;;;;17.08;9.55;;;;;;;;;;2105529;28;20043;-44
2021/12/29 05:36:03;;;;;;;18.38;9.60;;;;;;;;;;2106390;28;20048;-44
2021/12/29 05:37:04;;;;;;;18.10;9.75;;;;;;;;;;2107326;28;20119;-44
2021/12/29 05:38:05;;;;;;;16.63;8.85;;;;;;;;;;2098591;28;20553;-44
2021/12/29 05:39:06;;;;;;;19.80;9.83;;;;;;;;;;2097951;28;20052;-44
2021/12/29 05:40:08;;;;;;;16.65;9.43;;;;;;;;;;2101901;28;20152;-44
2021/12/29 05:41:10;;;;;;;17.83;9.27;;;;;;;;;;2114594;28;20096;-44
2021/12/29 05:42:10;;;;;;;19.50;9.60;;;;;;;;;;2114652;28;20122;-44
2021/12/29 05:43:12;;;;;;;16.42;9.20;;;;;;;;;;2104551;28;20053;-44
2021/12/29 05:44:12;;;;;;;15.57;8.65;;;;;;;;;;2106178;28;20123;-45
2021/12/29 05:45:14;;;;;;;15.93;9.17;;;;;;;;;;2106259;28;20048;-44
2021/12/29 05:46:15;;;;;;;;;;;;;;;;;;2106427;28;20047;-45
2021/12/29 05:47:16;;;;;;;11.48;6.22;;;;;;;;;;2097828;28;19920;-44
2021/12/29 05:48:17;;;;;;;15.80;8.77;;;;;;;;;;2097877;28;20463;-44
2021/12/29 05:49:18;;;;;;;18.33;8.63;;;;;;;;;;2103313;28;20078;-44
2021/12/29 05:50:21;;;;;;;17.10;8.70;;;;;;;;;;2106335;28;20050;-44
2021/12/29 05:51:22;;;;;;;15.75;8.40;;;;;;;;;;2105235;28;20392;-44
2021/12/29 05:52:23;;;;;;;19.60;9.48;;;;;;;;;;2104652;28;20127;-45
2021/12/29 05:53:24;;;;;;;17.03;9.20;;;;;;;;;;2106090;28;20504;-45
2021/12/29 05:54:25;;;;;;;15.85;9.30;;;;;;;;;;2104582;28;20545;-44
2021/12/29 05:55:26;;;;;;;17.27;9.47;;;;;;;;;;2105173;28;20097;-44
2021/12/29 05:56:28;;;;;;;18.70;10.10;;;;;;;;;;2106189;28;20044;-45
2021/12/29 05:57:30;;;;;;;22.10;10.68;;;;;;;;;;2104225;28;20040;-44
2021/12/29 05:58:31;;;;;;;16.20;9.82;;;;;;;;;;2111304;28;20500;-44
2021/12/29 05:59:32;;;;;;;19.65;10.02;;;;;;;;;;2114467;28;20488;-44
2021/12/29 06:00:33;;;;;;;21.77;10.57;;;;;;;;;;2108411;28;20054;-45
2021/12/29 06:01:35;;;;;;;20.23;10.82;;;;;;;;;;2111037;28;20149;-44
2021/12/29 06:02:36;;;;;;;20.92;10.70;;;;;;;;;;2105810;28;20126;-44
2021/12/29 06:03:38;;;;;;;19.10;10.73;;;;;;;;;;2104933;28;20513;-43
2021/12/29 06:04:39;;;;;;;18.95;10.50;;;;;;;;;;2105006;28;20127;-44
2021/12/29 06:05:40;;;;;;;20.25;10.82;;;;;;;;;;2106034;28;20052;-43
2021/12/29 06:06:41;;;;;;;19.70;10.63;;;;;;;;;;2104033;28;20118;-44
2021/12/29 06:07:42;;;;;;;19.98;10.50;;;;;;;;;;2105831;28;20178;-44
2021/12/29 06:08:44;;;;;;;19.67;10.23;;;;;;;;;;2105939;28;20412;-44